Time;durP1;ratioP1;P1;durP2;ratioP2;P2;SDS_P1;SDS_P2;PMS_P1;PMS_P2;Temp;Humidity;BMP_temperature;BMP_pressure;BME280_temperature;BME280_humidity;BME280_pressure;Samples;Min_cycle;Max_cycle;Signal;HPM_P1;HPM_P2
2023/04/07 00:03:39;;;;;;;9.40;8.48;;;9.20;67.00;;;;;;5084031;28;20249;-76
2023/04/07 00:06:09;;;;;;;11.27;9.20;;;9.20;66.90;;;;;;5091497;28;20250;-76
2023/04/07 00:08:36;;;;;;;9.93;8.35;;;9.10;66.70;;;;;;5111347;27;20227;-76
2023/04/07 00:11:03;;;;;;;10.82;8.05;;;9.10;66.60;;;;;;5112776;27;20377;-77
2023/04/07 00:13:30;;;;;;;10.02;8.02;;;9.10;66.40;;;;;;5091619;28;20223;-76
2023/04/07 00:15:57;;;;;;;10.57;9.05;;;9.10;66.10;;;;;;5092609;28;20231;-76
2023/04/07 00:18:24;;;;;;;10.65;8.15;;;9.10;66.30;;;;;;5092280;28;20561;-76
2023/04/07 00:20:56;;;;;;;9.60;8.27;;;9.10;66.00;;;;;;5113281;27;20679;-77
2023/04/07 00:23:26;;;;;;;9.55;8.13;;;9.00;65.90;;;;;;5113131;27;20227;-77
2023/04/07 00:25:53;;;;;;;10.73;9.73;;;9.00;66.20;;;;;;5112109;27;20272;-77
2023/04/07 00:28:20;;;;;;;12.20;10.10;;;9.00;66.30;;;;;;5094989;28;20429;-76
2023/04/07 00:30:50;;;;;;;8.95;8.07;;;9.00;66.20;;;;;;5092139;28;20223;-77
2023/04/07 00:33:17;;;;;;;10.57;9.68;;;8.90;66.00;;;;;;5092739;28;20254;-77
2023/04/07 00:35:45;;;;;;;9.30;8.40;;;8.90;66.00;;;;;;5092847;28;20620;-77
2023/04/07 00:38:13;;;;;;;10.15;8.15;;;8.90;66.00;;;;;;5093144;28;20224;-76
2023/04/07 00:40:44;;;;;;;9.65;8.07;;;8.80;65.60;;;;;;5092438;28;20302;-77
2023/04/07 00:43:13;;;;;;;8.18;7.28;;;8.80;65.90;;;;;;5093161;28;20235;-77
2023/04/07 00:45:41;;;;;;;9.27;8.20;;;8.80;65.80;;;;;;5095963;28;20749;-76
2023/04/07 00:48:11;;;;;;;9.07;8.18;;;8.80;66.00;;;;;;5097303;28;20234;-77
2023/04/07 00:50:38;;;;;;;8.55;7.75;;;8.80;66.40;;;;;;5096539;28;20291;-77
2023/04/07 00:53:06;;;;;;;10.10;8.57;;;8.70;66.60;;;;;;5089622;28;20570;-76
2023/04/07 00:58:19;;;;;;;9.05;7.70;;;8.70;67.10;;;;;;5097422;28;20230;-77
2023/04/07 01:00:51;;;;;;;10.30;8.57;;;8.70;67.20;;;;;;5097881;27;20675;-76
2023/04/07 01:03:23;;;;;;;10.23;8.18;;;8.70;67.30;;;;;;5093657;28;20223;-76
2023/04/07 01:05:56;;;;;;;9.38;8.50;;;8.60;67.90;;;;;;5105658;28;20310;-76
2023/04/07 01:08:30;;;;;;;8.70;7.90;;;8.60;67.50;;;;;;5123075;27;20248;-77
2023/04/07 01:11:08;;;;;;;11.10;7.93;;;8.60;67.10;;;;;;5127146;27;20225;-77
2023/04/07 01:13:38;;;;;;;9.55;8.00;;;8.50;68.00;;;;;;5087343;28;20238;-77
2023/04/07 01:16:13;;;;;;;8.77;7.18;;;8.40;67.90;;;;;;5083414;28;20299;-76
2023/04/07 01:18:41;;;;;;;9.20;8.00;;;8.40;67.60;;;;;;5090793;27;20220;-76
2023/04/07 01:21:14;;;;;;;8.82;7.95;;;8.40;67.80;;;;;;5115386;27;20631;-77
2023/04/07 01:24:01;;;;;;;8.77;6.95;;;8.40;68.00;;;;;;5098828;27;20301;-77
2023/04/07 01:26:32;;;;;;;12.20;8.38;;;8.40;67.80;;;;;;5113815;27;20219;-77
2023/04/07 01:29:30;;;;;;;8.80;7.40;;;8.40;67.50;;;;;;5102647;28;20238;-76
2023/04/07 01:32:07;;;;;;;11.65;8.50;;;8.40;67.50;;;;;;5096275;28;20231;-77
2023/04/07 01:34:35;;;;;;;9.45;8.48;;;8.30;67.90;;;;;;5096448;28;20272;-76
2023/04/07 01:37:03;;;;;;;11.82;9.10;;;8.30;68.00;;;;;;5096383;28;20636;-76
2023/04/07 01:39:31;;;;;;;10.93;8.23;;;8.30;68.40;;;;;;5102085;28;20226;-76
2023/04/07 01:42:01;;;;;;;10.50;8.65;;;8.30;68.30;;;;;;5115724;27;20553;-76
2023/04/07 01:44:32;;;;;;;8.80;8.00;;;8.20;68.50;;;;;;5116682;27;20231;-77
2023/04/07 01:47:00;;;;;;;9.38;8.05;;;8.20;68.30;;;;;;5115634;27;20283;-76
2023/04/07 01:52:27;;;;;;;10.43;8.00;;;8.20;68.50;;;;;;5035480;28;20298;-76
2023/04/07 01:54:56;;;;;;;10.48;7.60;;;8.10;68.70;;;;;;5033001;28;20229;-77
2023/04/07 01:57:23;;;;;;;10.35;7.88;;;8.10;68.70;;;;;;5034872;28;20225;-75
2023/04/07 01:59:52;;;;;;;8.43;7.55;;;8.10;68.80;;;;;;5042970;28;20231;-75
2023/04/07 02:02:19;;;;;;;10.85;8.32;;;8.10;68.90;;;;;;5097387;28;20225;-76
2023/04/07 02:04:53;;;;;;;8.82;7.93;;;8.10;68.80;;;;;;5114793;27;20222;-76
2023/04/07 02:07:25;;;;;;;12.30;8.70;;;8.10;69.00;;;;;;5115761;27;20233;-77
2023/04/07 02:09:56;;;;;;;9.15;8.25;;;8.10;69.20;;;;;;5115713;27;20663;-76
2023/04/07 02:12:26;;;;;;;12.55;8.40;;;8.10;69.50;;;;;;5104198;27;20235;-77
2023/04/07 02:14:55;;;;;;;12.50;9.15;;;8.10;69.80;;;;;;5099745;27;20306;-77
2023/04/07 02:17:30;;;;;;;11.77;8.63;;;8.00;70.00;;;;;;5116451;27;20222;-76
2023/04/07 02:19:59;;;;;;;15.45;10.38;;;8.00;69.90;;;;;;5114801;27;20265;-77
2023/04/07 02:22:27;;;;;;;9.55;8.50;;;7.90;69.80;;;;;;5115827;27;20235;-77
2023/04/07 02:24:54;;;;;;;11.18;8.10;;;8.00;69.90;;;;;;5114377;27;20692;-76
2023/04/07 02:27:21;;;;;;;13.02;9.50;;;7.90;70.20;;;;;;5106251;27;20546;-76
2023/04/07 02:29:48;;;;;;;11.95;8.98;;;7.90;70.30;;;;;;5094296;28;20249;-76
2023/04/07 02:32:18;;;;;;;8.70;7.80;;;7.90;70.40;;;;;;5095231;28;20207;-76
2023/04/07 02:34:45;;;;;;;10.75;8.55;;;7.80;70.40;;;;;;5094001;28;20242;-76
2023/04/07 02:37:12;;;;;;;14.27;9.27;;;7.80;70.20;;;;;;5094730;28;20299;-76
2023/04/07 02:39:39;;;;;;;12.55;8.70;;;7.80;70.40;;;;;;5094807;28;20216;-76
2023/04/07 02:42:07;;;;;;;10.40;8.63;;;7.80;70.40;;;;;;5094780;28;20712;-77
2023/04/07 02:47:26;;;;;;;10.63;8.20;;;7.80;70.80;;;;;;5094198;28;20700;-76
2023/04/07 02:49:53;;;;;;;11.98;8.40;;;7.70;70.70;;;;;;5095122;28;20292;-76
2023/04/07 02:52:20;;;;;;;9.85;7.97;;;7.70;70.80;;;;;;5097473;27;20578;-76
2023/04/07 02:54:47;;;;;;;9.45;8.20;;;7.70;70.70;;;;;;5113330;27;20248;-76
2023/04/07 02:57:14;;;;;;;10.65;8.35;;;7.70;70.80;;;;;;5115650;27;20223;-75
2023/04/07 02:59:41;;;;;;;8.95;7.93;;;7.60;70.80;;;;;;5119976;27;20262;-77
2023/04/07 03:02:08;;;;;;;8.90;8.05;;;7.70;70.90;;;;;;5119959;27;20333;-77
2023/04/07 03:04:37;;;;;;;9.43;8.52;;;7.60;70.80;;;;;;5114095;27;20568;-77
2023/04/07 03:07:04;;;;;;;10.13;8.40;;;7.60;71.20;;;;;;5082808;28;20319;-77
2023/04/07 03:09:33;;;;;;;8.90;7.35;;;7.60;71.50;;;;;;5073404;28;20227;-77
2023/04/07 03:12:03;;;;;;;9.90;8.85;;;7.60;71.90;;;;;;5082083;28;20235;-77
2023/04/07 03:14:33;;;;;;;9.50;7.38;;;7.60;72.00;;;;;;5093981;28;20223;-76
2023/04/07 03:17:00;;;;;;;10.68;8.45;;;7.50;72.00;;;;;;5097710;28;20227;-76
2023/04/07 03:19:27;;;;;;;7.85;7.15;;;7.60;71.60;;;;;;5097100;28;20646;-77
2023/04/07 03:21:56;;;;;;;9.40;7.72;;;7.60;71.60;;;;;;5093723;28;20300;-77
2023/04/07 03:24:23;;;;;;;9.27;8.38;;;7.60;71.50;;;;;;5093869;28;20241;-76
2023/04/07 03:26:50;;;;;;;9.48;8.02;;;7.60;71.60;;;;;;5092855;27;20231;-77
2023/04/07 03:29:17;;;;;;;9.82;7.75;;;7.50;72.00;;;;;;5093811;28;20228;-77
2023/04/07 03:31:45;;;;;;;8.98;8.18;;;7.50;72.00;;;;;;5092857;28;20733;-77
2023/04/07 03:34:13;;;;;;;8.73;7.80;;;7.50;71.90;;;;;;5094138;28;20227;-77
2023/04/07 03:36:41;;;;;;;8.63;7.80;;;7.50;72.30;;;;;;5093222;28;20329;-77
2023/04/07 03:42:05;;;;;;;9.18;7.47;;;7.50;72.30;;;;;;5051657;28;21020;-77
2023/04/07 03:44:32;;;;;;;9.52;8.30;;;7.50;72.40;;;;;;5083167;28;20680;-77
2023/04/07 03:46:59;;;;;;;10.15;7.88;;;7.50;72.70;;;;;;5094225;28;20644;-76
2023/04/07 03:49:26;;;;;;;11.43;9.55;;;7.50;72.90;;;;;;5092750;28;20753;-77
2023/04/07 03:51:54;;;;;;;10.88;9.27;;;7.40;73.10;;;;;;5094045;28;20314;-77
2023/04/07 03:54:23;;;;;;;10.27;7.85;;;7.50;73.40;;;;;;5092681;28;20235;-77
2023/04/07 03:56:50;;;;;;;9.73;8.60;;;7.40;73.40;;;;;;5093413;28;20237;-77
2023/04/07 03:59:23;;;;;;;8.15;7.45;;;7.40;73.60;;;;;;5090180;28;20675;-77
2023/04/07 04:01:50;;;;;;;15.32;8.93;;;7.40;73.60;;;;;;5099564;28;20215;-77
2023/04/07 04:04:18;;;;;;;10.48;9.18;;;7.40;73.70;;;;;;5093405;28;20242;-78
2023/04/07 04:09:41;;;;;;;9.65;8.48;;;7.30;74.00;;;;;;5085471;28;20238;-77
2023/04/07 04:12:08;;;;;;;10.68;9.55;;;7.30;74.10;;;;;;5090860;28;20223;-77
2023/04/07 04:14:35;;;;;;;9.95;8.98;;;7.30;74.70;;;;;;5092541;28;20231;-77
2023/04/07 04:17:03;;;;;;;15.02;9.60;;;7.20;75.00;;;;;;5093709;28;20223;-76
2023/04/07 04:19:35;;;;;;;10.63;9.55;;;7.20;75.10;;;;;;5091223;28;20325;-77
2023/04/07 04:22:02;;;;;;;11.55;10.40;;;7.20;75.50;;;;;;5093647;28;20223;-76
2023/04/07 04:24:29;;;;;;;10.07;9.07;;;7.20;75.90;;;;;;5092475;28;20300;-76
2023/04/07 04:26:57;;;;;;;9.85;8.90;;;7.20;75.60;;;;;;5093009;28;20684;-76
2023/04/07 04:29:25;;;;;;;12.00;10.55;;;7.20;76.00;;;;;;5092807;28;20223;-77
2023/04/07 04:31:52;;;;;;;9.70;8.70;;;7.10;76.00;;;;;;5093758;28;20317;-76
2023/04/07 04:37:00;;;;;;;9.27;8.38;;;7.10;76.40;;;;;;5094354;28;20219;-78
2023/04/07 04:39:27;;;;;;;10.60;9.50;;;7.10;76.60;;;;;;5094725;28;20489;-77
2023/04/07 04:42:02;;;;;;;9.98;8.93;;;7.10;76.70;;;;;;5096154;28;20239;-78
2023/04/07 04:44:31;;;;;;;11.40;10.40;;;7.10;76.70;;;;;;5097120;28;20223;-77
2023/04/07 04:46:58;;;;;;;12.77;9.73;;;7.10;76.90;;;;;;5093886;28;20219;-78
2023/04/07 04:49:26;;;;;;;11.32;10.13;;;7.10;77.00;;;;;;5093318;28;20238;-77
2023/04/07 04:51:53;;;;;;;12.10;8.88;;;7.10;77.30;;;;;;5093338;28;20329;-76
2023/04/07 04:54:20;;;;;;;10.65;9.55;;;7.10;77.30;;;;;;5095018;28;20233;-77
2023/04/07 04:56:47;;;;;;;10.27;8.82;;;7.10;77.60;;;;;;5097319;28;20735;-77
2023/04/07 04:59:14;;;;;;;10.75;9.68;;;7.00;77.80;;;;;;5096517;28;20223;-78
2023/04/07 05:01:43;;;;;;;10.27;8.57;;;7.00;78.40;;;;;;5095150;28;20231;-77
2023/04/07 05:04:10;;;;;;;10.35;9.35;;;7.00;78.30;;;;;;5093220;28;20223;-76
2023/04/07 05:06:39;;;;;;;10.55;9.55;;;7.00;78.40;;;;;;5096964;28;20215;-76
2023/04/07 05:09:06;;;;;;;10.65;9.55;;;7.00;78.50;;;;;;5097025;28;20572;-77
2023/04/07 05:11:33;;;;;;;10.90;9.85;;;6.90;78.60;;;;;;5106685;28;20212;-77
2023/04/07 05:14:03;;;;;;;9.95;9.05;;;7.00;78.60;;;;;;5106623;28;20314;-76
2023/04/07 05:16:30;;;;;;;9.73;8.82;;;7.00;78.60;;;;;;5105182;28;20239;-77
2023/04/07 05:18:59;;;;;;;10.32;9.10;;;6.90;78.80;;;;;;5092413;28;20219;-76
2023/04/07 05:21:26;;;;;;;12.35;9.75;;;7.00;78.90;;;;;;5099322;28;20219;-78
2023/04/07 05:23:53;;;;;;;12.80;9.10;;;7.00;79.00;;;;;;5094984;28;20277;-76
2023/04/07 05:26:21;;;;;;;10.82;9.73;;;7.00;79.00;;;;;;5093657;28;20238;-77
2023/04/07 05:31:45;;;;;;;11.43;9.57;;;7.10;78.90;;;;;;5086800;28;20258;-76
2023/04/07 05:34:14;;;;;;;11.18;8.88;;;7.10;78.70;;;;;;5108751;28;20557;-76
2023/04/07 05:36:41;;;;;;;10.23;9.13;;;7.10;78.70;;;;;;5096606;27;20265;-75
2023/04/07 05:39:08;;;;;;;10.50;8.63;;;7.20;78.90;;;;;;5096495;28;20247;-75
2023/04/07 05:41:36;;;;;;;10.18;8.10;;;7.20;78.90;;;;;;5096379;28;20319;-76
2023/04/07 05:44:05;;;;;;;14.40;9.32;;;7.20;78.90;;;;;;5096390;28;20701;-75
2023/04/07 05:46:32;;;;;;;10.50;8.57;;;7.20;79.10;;;;;;5095905;28;20223;-76
2023/04/07 05:48:59;;;;;;;10.35;8.95;;;7.30;79.30;;;;;;5095817;28;20947;-76
2023/04/07 05:51:27;;;;;;;10.70;9.60;;;7.30;79.40;;;;;;5095642;28;20230;-76
2023/04/07 05:53:54;;;;;;;10.90;8.52;;;7.30;79.50;;;;;;5096926;28;20246;-76
2023/04/07 05:56:24;;;;;;;9.38;8.10;;;7.40;79.50;;;;;;5095572;28;20239;-76
2023/04/07 05:58:52;;;;;;;10.60;9.55;;;7.40;79.60;;;;;;5095359;27;20269;-75
2023/04/07 06:01:19;;;;;;;9.77;8.80;;;7.40;79.70;;;;;;5095949;28;20349;-75
2023/04/07 06:06:28;;;;;;;10.25;9.23;;;7.40;79.30;;;;;;5095339;28;20227;-76
2023/04/07 06:08:57;;;;;;;10.73;7.93;;;7.40;79.80;;;;;;5095463;28;20223;-77
2023/04/07 06:11:25;;;;;;;10.32;8.45;;;7.40;80.00;;;;;;5095923;28;20219;-76
2023/04/07 06:13:52;;;;;;;12.00;9.23;;;7.30;80.30;;;;;;5094837;28;20306;-75
2023/04/07 06:16:19;;;;;;;10.00;9.10;;;7.40;80.40;;;;;;5096645;28;20223;-76
2023/04/07 06:18:46;;;;;;;10.40;8.50;;;7.40;80.50;;;;;;5105043;28;20283;-77
2023/04/07 06:21:13;;;;;;;9.63;8.68;;;7.40;80.70;;;;;;5102723;28;20536;-77
2023/04/07 06:26:31;;;;;;;10.82;9.70;;;7.40;81.00;;;;;;5106049;28;20314;-77
2023/04/07 06:28:58;;;;;;;11.75;10.52;;;7.40;81.10;;;;;;5108503;28;20223;-76
2023/04/07 06:31:26;;;;;;;12.55;9.65;;;7.50;81.20;;;;;;5106795;28;20292;-77
2023/04/07 06:33:53;;;;;;;11.27;10.15;;;7.50;81.30;;;;;;5095317;28;20235;-76
2023/04/07 06:36:22;;;;;;;9.82;8.85;;;7.60;81.30;;;;;;5095322;28;20751;-77
2023/04/07 06:38:50;;;;;;;10.90;9.35;;;7.60;81.30;;;;;;5094728;28;20732;-77
2023/04/07 06:41:17;;;;;;;12.20;10.57;;;7.70;81.30;;;;;;5095574;28;20251;-76
2023/04/07 06:43:46;;;;;;;10.98;9.85;;;7.70;81.40;;;;;;5094452;28;20568;-77
2023/04/07 06:46:14;;;;;;;11.27;10.18;;;7.80;81.60;;;;;;5095499;28;20288;-77
2023/04/07 06:48:45;;;;;;;13.70;10.80;;;7.80;81.70;;;;;;5094427;28;20234;-77
2023/04/07 06:51:12;;;;;;;14.52;11.40;;;7.80;81.60;;;;;;5094686;28;20552;-77
2023/04/07 06:53:40;;;;;;;11.85;9.23;;;7.90;81.80;;;;;;5094166;28;20220;-76
2023/04/07 06:56:12;;;;;;;13.63;10.35;;;7.90;81.80;;;;;;5094444;28;20231;-77
2023/04/07 06:58:39;;;;;;;10.45;9.40;;;8.00;81.70;;;;;;5094290;28;20231;-77
2023/04/07 07:01:07;;;;;;;11.40;9.98;;;8.00;81.80;;;;;;5094557;28;20334;-77
2023/04/07 07:03:34;;;;;;;12.68;10.02;;;8.10;81.80;;;;;;5094430;28;20234;-77
2023/04/07 07:06:02;;;;;;;13.65;10.90;;;8.10;82.20;;;;;;5094879;28;20303;-77
2023/04/07 07:08:29;;;;;;;12.50;9.88;;;8.10;82.20;;;;;;5092685;28;20251;-77
2023/04/07 07:10:59;;;;;;;14.23;10.70;;;8.10;82.30;;;;;;5093180;28;20257;-77
2023/04/07 07:13:29;;;;;;;12.40;9.57;;;8.20;82.40;;;;;;5093807;28;20223;-77
2023/04/07 07:15:56;;;;;;;12.32;9.35;;;8.20;82.40;;;;;;5093722;28;20227;-77
2023/04/07 07:18:36;;;;;;;11.85;9.52;;;8.30;82.50;;;;;;5083985;28;20723;-77
2023/04/07 07:21:03;;;;;;;10.32;9.15;;;8.30;82.50;;;;;;5093716;28;20252;-76
2023/04/07 07:23:32;;;;;;;10.02;9.00;;;8.40;81.90;;;;;;5094022;28;20220;-77
2023/04/07 07:25:59;;;;;;;11.15;9.50;;;8.40;81.70;;;;;;5093740;28;20559;-77
2023/04/07 07:28:28;;;;;;;9.65;8.65;;;8.50;81.50;;;;;;5094394;28;20218;-77
2023/04/07 07:30:56;;;;;;;11.07;7.93;;;8.50;81.20;;;;;;5093647;28;20220;-77
2023/04/07 07:33:23;;;;;;;10.65;8.15;;;8.60;80.10;;;;;;5093979;28;20215;-77
2023/04/07 07:35:53;;;;;;;9.05;7.55;;;8.60;79.00;;;;;;5093864;28;20283;-77
2023/04/07 07:38:20;;;;;;;10.73;7.22;;;8.70;77.80;;;;;;5093632;28;20219;-77
2023/04/07 07:40:56;;;;;;;10.25;6.97;;;8.70;76.30;;;;;;5092076;28;20315;-77
2023/04/07 07:43:23;;;;;;;10.30;8.48;;;8.80;74.50;;;;;;5084224;28;20404;-77
2023/04/07 07:45:54;;;;;;;10.23;7.90;;;8.90;73.60;;;;;;5093667;28;20664;-77
2023/04/07 07:48:26;;;;;;;11.55;6.78;;;9.00;71.70;;;;;;5095425;28;20238;-77
2023/04/07 07:51:03;;;;;;;9.48;7.50;;;9.10;70.50;;;;;;5085231;28;20227;-77
2023/04/07 07:53:30;;;;;;;8.60;7.57;;;9.20;70.50;;;;;;5104599;28;20332;-75
2023/04/07 07:55:57;;;;;;;6.45;5.93;;;9.20;70.50;;;;;;5076260;28;20311;-77
2023/04/07 07:58:24;;;;;;;6.13;5.45;;;9.30;70.10;;;;;;5101612;28;20215;-77
2023/04/07 08:00:54;;;;;;;6.25;5.75;;;9.30;69.10;;;;;;5093614;28;20273;-76
2023/04/07 08:03:21;;;;;;;5.85;5.28;;;9.30;68.00;;;;;;5093608;28;20230;-76
2023/04/07 08:05:49;;;;;;;7.07;6.38;;;9.30;66.30;;;;;;5091646;28;20227;-76
2023/04/07 08:08:17;;;;;;;6.05;4.55;;;9.40;65.60;;;;;;5093498;28;20251;-75
2023/04/07 08:10:44;;;;;;;7.95;5.55;;;9.40;64.90;;;;;;5077407;28;20311;-76
2023/04/07 08:16:03;;;;;;;6.68;5.95;;;9.40;62.50;;;;;;5088635;28;20306;-76
2023/04/07 08:18:30;;;;;;;7.13;5.80;;;9.50;62.80;;;;;;5094624;28;20219;-76
2023/04/07 08:20:57;;;;;;;8.20;5.88;;;9.50;62.80;;;;;;5095799;28;20708;-75
2023/04/07 08:23:26;;;;;;;7.72;5.20;;;9.50;61.50;;;;;;5101804;28;20547;-75
2023/04/07 08:25:53;;;;;;;7.38;5.68;;;9.60;61.80;;;;;;5100003;28;20253;-75
2023/04/07 08:28:21;;;;;;;6.18;5.15;;;9.60;61.80;;;;;;5096844;28;20253;-75
2023/04/07 08:30:48;;;;;;;6.78;4.70;;;9.60;62.30;;;;;;5100716;28;20253;-75
2023/04/07 08:33:17;;;;;;;5.25;4.70;;;9.60;61.20;;;;;;5099094;28;20252;-75
2023/04/07 08:35:44;;;;;;;4.57;4.18;;;9.60;61.20;;;;;;5097950;28;20663;-77
2023/04/07 08:38:11;;;;;;;5.22;4.72;;;9.70;61.70;;;;;;5100222;28;20222;-76
2023/04/07 08:40:39;;;;;;;5.55;4.53;;;9.80;62.20;;;;;;5093815;28;20544;-76
2023/04/07 08:46:06;;;;;;;5.10;4.38;;;9.90;61.50;;;;;;5078476;28;20240;-76
2023/04/07 08:48:45;;;;;;;5.88;4.47;;;9.90;60.60;;;;;;5066573;28;20256;-77
2023/04/07 08:51:15;;;;;;;7.43;4.40;;;10.00;58.80;;;;;;5090335;28;20307;-77
2023/04/07 08:53:49;;;;;;;7.13;5.00;;;10.00;59.00;;;;;;5092732;28;20223;-77
2023/04/07 08:56:16;;;;;;;5.45;4.72;;;10.00;58.80;;;;;;5091653;28;20230;-78
2023/04/07 08:58:45;;;;;;;5.40;4.30;;;10.10;59.10;;;;;;5107266;28;20218;-78
2023/04/07 09:01:14;;;;;;;4.47;4.00;;;10.10;59.10;;;;;;5084723;28;20296;-76
2023/04/07 09:03:44;;;;;;;4.57;3.80;;;10.10;58.50;;;;;;5094657;28;20268;-75
2023/04/07 09:06:11;;;;;;;6.25;5.07;;;10.10;58.60;;;;;;5097600;28;20227;-75
2023/04/07 09:11:38;;;;;;;6.68;4.10;;;10.00;56.50;;;;;;5047711;28;20238;-76
2023/04/07 09:14:09;;;;;;;11.02;4.68;;;10.00;55.60;;;;;;5096831;28;20313;-76
2023/04/07 09:16:37;;;;;;;4.75;3.50;;;9.90;55.90;;;;;;5086911;28;20345;-77
2023/04/07 09:19:06;;;;;;;6.90;4.90;;;9.90;55.70;;;;;;5095760;28;20341;-77
2023/04/07 09:21:53;;;;;;;3.85;3.55;;;9.80;55.30;;;;;;5092390;28;20230;-77
2023/04/07 09:24:24;;;;;;;7.75;5.10;;;9.80;55.70;;;;;;5085835;28;20316;-76
2023/04/07 09:27:08;;;;;;;6.88;4.78;;;9.70;56.50;;;;;;5094655;28;20239;-78
2023/04/07 09:29:47;;;;;;;6.55;4.28;;;9.70;56.90;;;;;;5094944;28;20230;-75
2023/04/07 09:32:42;;;;;;;4.40;4.00;;;9.70;57.10;;;;;;5095140;28;20284;-76
2023/04/07 09:35:14;;;;;;;4.55;4.03;;;9.70;57.10;;;;;;5095992;28;20251;-77
2023/04/07 09:37:47;;;;;;;4.25;3.40;;;9.60;56.90;;;;;;5087610;28;20291;-77
2023/04/07 09:40:27;;;;;;;4.22;3.50;;;9.60;57.00;;;;;;5086567;28;20234;-76
2023/04/07 09:42:54;;;;;;;3.88;3.58;;;9.50;56.60;;;;;;5084770;28;20218;-76
2023/04/07 09:45:26;;;;;;;5.25;3.50;;;9.50;56.80;;;;;;5084993;28;20232;-77
2023/04/07 09:47:53;;;;;;;4.07;3.67;;;9.50;57.20;;;;;;5075518;28;20287;-78
2023/04/07 09:50:34;;;;;;;4.93;4.43;;;9.50;58.10;;;;;;5085875;28;20227;-77
2023/04/07 09:53:02;;;;;;;4.35;3.95;;;9.40;59.40;;;;;;5096015;28;20302;-76
2023/04/07 09:55:30;;;;;;;4.22;3.88;;;9.40;60.60;;;;;;5095495;28;20300;-77
2023/04/07 09:58:03;;;;;;;6.15;4.68;;;9.40;61.20;;;;;;5096421;28;20227;-76
2023/04/07 10:00:31;;;;;;;5.28;4.45;;;9.50;61.30;;;;;;5091488;28;20669;-76
2023/04/07 10:05:46;;;;;;;6.72;5.10;;;9.50;61.90;;;;;;5057887;28;20219;-77
2023/04/07 10:08:14;;;;;;;7.45;4.10;;;9.50;62.00;;;;;;5094697;28;20253;-77
2023/04/07 10:10:43;;;;;;;4.22;3.80;;;9.60;62.10;;;;;;5085787;28;20317;-76
2023/04/07 10:13:12;;;;;;;4.65;3.90;;;9.60;61.80;;;;;;5091933;28;20220;-77
2023/04/07 10:15:40;;;;;;;6.40;4.38;;;9.70;61.40;;;;;;5093952;28;20228;-77
2023/04/07 10:18:28;;;;;;;4.68;3.90;;;9.70;61.10;;;;;;5093504;28;20333;-77
2023/04/07 10:21:02;;;;;;;4.38;3.88;;;9.70;60.80;;;;;;5094090;28;20302;-78
2023/04/07 10:23:39;;;;;;;4.30;3.90;;;9.80;60.80;;;;;;5095129;28;20261;-76
2023/04/07 10:26:07;;;;;;;5.65;4.18;;;9.80;61.00;;;;;;5094727;28;20219;-77
2023/04/07 10:28:37;;;;;;;6.32;4.20;;;9.70;61.10;;;;;;5093477;28;20231;-77
2023/04/07 10:31:05;;;;;;;6.18;3.92;;;9.80;61.70;;;;;;5083875;28;20235;-76
2023/04/07 10:33:49;;;;;;;4.68;4.25;;;9.80;61.90;;;;;;5094854;28;20219;-76
2023/04/07 10:36:19;;;;;;;4.38;3.97;;;9.80;62.30;;;;;;5093787;28;20230;-76
2023/04/07 10:39:23;;;;;;;3.67;3.38;;;9.80;62.60;;;;;;5094205;28;20215;-77
2023/04/07 10:41:51;;;;;;;3.90;3.42;;;9.90;63.50;;;;;;5094132;28;20223;-76
2023/04/07 10:44:48;;;;;;;3.67;3.38;;;9.90;63.90;;;;;;5094660;28;20223;-78
2023/04/07 10:47:15;;;;;;;5.38;4.05;;;9.80;64.70;;;;;;5094840;28;20219;-77
2023/04/07 10:50:15;;;;;;;4.93;4.45;;;9.80;65.20;;;;;;5093815;28;20219;-76
2023/04/07 10:52:46;;;;;;;3.80;3.50;;;9.90;66.60;;;;;;5094209;28;20243;-76
2023/04/07 10:55:38;;;;;;;5.30;4.25;;;9.80;67.30;;;;;;5093472;28;20223;-75
2023/04/07 10:58:36;;;;;;;5.63;4.03;;;9.90;68.00;;;;;;5079366;28;20314;-76
2023/04/07 11:01:35;;;;;;;4.05;3.65;;;9.90;70.00;;;;;;5088909;28;20219;-76
2023/04/07 11:04:03;;;;;;;4.63;4.18;;;9.90;73.50;;;;;;5037391;28;20688;-76
2023/04/07 11:06:30;;;;;;;6.93;4.68;;;9.90;76.40;;;;;;5107733;28;20660;-76
2023/04/07 11:08:59;;;;;;;8.30;4.85;;;9.90;79.00;;;;;;5092166;28;20728;-76
2023/04/07 11:11:38;;;;;;;7.32;4.82;;;9.90;80.50;;;;;;5092562;28;20310;-77
2023/04/07 11:14:06;;;;;;;9.73;5.47;;;9.80;82.20;;;;;;5092485;28;20223;-77
2023/04/07 11:16:41;;;;;;;5.10;4.57;;;9.80;83.30;;;;;;5093908;28;20243;-77
2023/04/07 11:19:09;;;;;;;5.25;4.75;;;9.80;85.60;;;;;;5094069;28;20223;-77
2023/04/07 11:21:39;;;;;;;5.40;4.90;;;9.80;86.40;;;;;;5092739;28;20219;-76
2023/04/07 11:24:10;;;;;;;6.65;4.75;;;9.80;89.40;;;;;;5093279;28;20284;-77
2023/04/07 11:26:41;;;;;;;5.35;4.85;;;9.70;90.10;;;;;;5092995;28;20223;-78
2023/04/07 11:29:12;;;;;;;4.90;4.50;;;9.70;91.00;;;;;;5091976;28;20302;-76
2023/04/07 11:31:39;;;;;;;6.35;5.25;;;9.70;91.70;;;;;;5093735;28;20258;-78
2023/04/07 11:34:07;;;;;;;5.70;5.10;;;9.70;92.10;;;;;;5092913;28;20223;-77
2023/04/07 11:36:37;;;;;;;8.98;5.65;;;9.80;92.50;;;;;;5092567;28;20246;-78
2023/04/07 11:39:04;;;;;;;6.47;5.47;;;9.70;93.10;;;;;;5093528;28;20227;-77
2023/04/07 11:41:35;;;;;;;7.13;6.50;;;9.70;93.40;;;;;;5092551;28;20222;-77
2023/04/07 11:44:07;;;;;;;7.25;6.55;;;9.70;94.60;;;;;;5093551;28;20239;-78
2023/04/07 11:46:35;;;;;;;9.63;7.65;;;9.70;95.40;;;;;;5092314;28;20223;-76
2023/04/07 11:49:13;;;;;;;8.18;7.10;;;9.70;96.70;;;;;;5086791;27;20562;-77
2023/04/07 11:54:41;;;;;;;6.20;5.60;;;9.70;98.70;;;;;;5080935;28;20356;-76
2023/04/07 11:57:12;;;;;;;8.10;6.55;;;9.60;99.70;;;;;;5073006;28;20220;-77
2023/04/07 11:59:40;;;;;;;6.88;6.25;;;9.60;99.90;;;;;;5072765;28;20224;-77
2023/04/07 12:02:08;;;;;;;8.02;7.20;;;9.60;99.90;;;;;;5073705;28;20295;-76
2023/04/07 12:04:38;;;;;;;7.22;6.53;;;9.60;99.90;;;;;;5072235;28;20232;-76
2023/04/07 12:07:13;;;;;;;7.60;6.40;;;9.60;99.90;;;;;;5071993;28;20293;-77
2023/04/07 12:09:41;;;;;;;8.30;7.47;;;9.60;99.90;;;;;;5062679;28;20225;-77
2023/04/07 12:12:10;;;;;;;7.00;6.30;;;9.60;99.90;;;;;;5079805;28;20227;-77
2023/04/07 12:14:38;;;;;;;8.90;5.90;;;9.60;99.90;;;;;;5092537;28;20238;-76
2023/04/07 12:17:08;;;;;;;6.57;5.88;;;9.50;99.90;;;;;;5093686;28;20219;-76
2023/04/07 12:19:38;;;;;;;7.18;6.47;;;9.50;99.90;;;;;;5080777;28;20273;-76
2023/04/07 12:22:05;;;;;;;5.80;5.15;;;9.50;99.90;;;;;;5092887;28;20248;-76
2023/04/07 12:24:32;;;;;;;6.50;5.70;;;9.50;99.90;;;;;;5092506;28;20230;-76
2023/04/07 12:27:00;;;;;;;6.07;4.47;;;9.40;99.90;;;;;;5091578;28;20291;-77
2023/04/07 12:29:28;;;;;;;6.85;6.10;;;9.40;99.90;;;;;;5090587;28;20720;-77
2023/04/07 12:31:58;;;;;;;5.40;4.90;;;9.30;99.90;;;;;;5090741;28;20227;-76
2023/04/07 12:34:39;;;;;;;5.90;5.20;;;9.30;99.90;;;;;;5091807;28;20223;-76
2023/04/07 12:37:07;;;;;;;7.57;4.47;;;9.30;99.90;;;;;;5093026;28;20233;-76
2023/04/07 12:39:34;;;;;;;6.45;5.80;;;9.30;99.90;;;;;;5091524;28;20220;-76
2023/04/07 12:42:01;;;;;;;6.47;4.70;;;9.30;99.90;;;;;;5092199;28;20234;-78
2023/04/07 12:44:30;;;;;;;4.63;3.90;;;9.30;99.90;;;;;;5083221;28;20244;-77
2023/04/07 12:46:59;;;;;;;5.50;4.80;;;9.20;99.90;;;;;;5092687;28;20219;-77
2023/04/07 12:49:30;;;;;;;4.93;4.10;;;9.20;99.90;;;;;;5091823;28;20609;-77
2023/04/07 12:51:57;;;;;;;4.22;3.80;;;9.20;99.90;;;;;;5091450;28;20223;-78
2023/04/07 12:54:25;;;;;;;4.20;3.30;;;9.20;99.90;;;;;;5090621;28;20227;-78
2023/04/07 12:56:56;;;;;;;4.28;3.47;;;9.10;99.90;;;;;;5092787;28;20724;-77
2023/04/07 12:59:23;;;;;;;4.13;3.72;;;9.10;99.90;;;;;;5090982;28;20243;-78
2023/04/07 13:01:51;;;;;;;5.00;4.05;;;9.10;99.90;;;;;;5092289;28;20659;-77
2023/04/07 13:04:18;;;;;;;5.00;4.50;;;9.20;99.90;;;;;;5091722;28;20239;-78
2023/04/07 13:06:46;;;;;;;3.78;3.38;;;9.20;99.90;;;;;;5092435;28;20215;-77
2023/04/07 13:09:14;;;;;;;3.45;3.15;;;9.20;99.90;;;;;;5092810;28;20223;-76
2023/04/07 13:11:41;;;;;;;4.10;3.10;;;9.20;99.90;;;;;;5091058;28;20227;-76
2023/04/07 13:14:09;;;;;;;4.65;4.25;;;9.20;99.90;;;;;;5092467;28;20273;-77
2023/04/07 13:16:36;;;;;;;4.90;4.18;;;9.30;99.90;;;;;;5082433;28;20248;-76
2023/04/07 13:19:08;;;;;;;5.03;4.50;;;9.30;99.90;;;;;;5091976;28;20310;-76
2023/04/07 13:21:59;;;;;;;;;;;;;;;;;;;;;
2023/04/07 13:24:26;;;;;;;6.20;5.10;;;9.40;99.90;;;;;;5079104;28;20223;-78
2023/04/07 13:26:53;;;;;;;4.65;4.25;;;9.40;99.90;;;;;;5088375;28;20651;-78
2023/04/07 13:29:20;;;;;;;5.03;4.53;;;9.50;99.90;;;;;;5092414;28;20278;-77
2023/04/07 13:32:04;;;;;;;4.97;4.40;;;9.50;99.90;;;;;;5083568;28;20474;-77
2023/04/07 13:34:45;;;;;;;4.55;4.07;;;9.50;99.90;;;;;;5100805;28;20233;-77
2023/04/07 13:37:18;;;;;;;4.43;3.92;;;9.40;99.90;;;;;;5098803;28;20229;-78
2023/04/07 13:42:33;;;;;;;5.47;4.32;;;9.50;99.90;;;;;;5091442;28;20226;-78
2023/04/07 13:45:04;;;;;;;4.85;4.28;;;9.40;99.90;;;;;;5090811;28;20258;-77
2023/04/07 13:47:33;;;;;;;6.00;4.40;;;9.40;99.90;;;;;;5090963;28;20253;-78
2023/04/07 13:50:03;;;;;;;4.38;3.97;;;9.40;99.90;;;;;;5091783;28;20223;-77
2023/04/07 13:52:31;;;;;;;5.35;4.90;;;9.40;99.90;;;;;;5090701;28;20258;-77